Portada
METAR-TAF:

METAR-TAF

Aeroports :

Libreville, Gabon

latitud: 00-27N, longitud: 009-25E, altitud: 12 m

Observació

L'informe es va fer fa 37 minuts, a les 19:30 UTC
Vent 6 kt del Sud/Sud-Oest
Temperatura 28°C
Humitat 79%
Pressió 1010 hPa
Visibilitat 10 km o més
Escasses núvols a una alçada de 1300 ft

METAR: FOOL 201930Z 20006KT 9999 FEW013 28/24 Q1010 NOSIG

Hora: 21:07 (20:07 UTC)

Pronòstic

L'informe es va fer fa 3 hores i 7 minuts, a les 17:00 UTC
Pronòstic vàlid del 20 a les 18 UTC al 21 a les 24 UTC
Vent 7 kt del Sud-Oest
Visibilitat 10 km o més
Núvols disperses a una alçada de 1200 ft
Probabilitat 40% :
Temporalment
l' 21 a les 01 UTC al 21 a les 05 UTC
Visibilitat: 3500 m
Cel ennuvolat a una alçada de 800 ft
Escasses núvols a una alçada de 1800 ft, Cumulonimbus.
tempesta, pluja

TAF: FOOL 201700Z 2018/2124 22007KT 9999 SCT012 PROB40 TEMPO 2101/2105 3500 TSRA BKN008 FEW018CB

Observacions i pronòstics meteorològics de més de 4000 aeroports (METAR i TAF).

Les estacions disponibles són els punts grocs i vermells al mapa.

Posi el ratolí al punt desitjat per veure el nom de l'estació.

Feu clic per veure les observacions i els pronòstics meteorològics.

Per canviar el mapa: feu clic els botons verds amb una creu de color negre per apropar; al botó verd amb un guió per allunyar la imatge; o en les fletxes verdes per a mapes adjacents.


METAR-TAF: